CYKL

Details ICAO CYKL (YKL)
Name SCHEFFERVILLE
Region Canada
Timezone America/Montreal (UTC-5.0)
Plans Departing 10
Arriving 9
Stats Elevation 1,709 ft / 521 m (AMSL)
Location 54.804722° -66.804722°
Runways 1
Magnetic Variation 20.963° W
Sunrise 2017-12-12 12:43:32 UTC / 2017-12-12 07:43:32 Local
Sunset 2017-12-12 20:01:24 UTC / 2017-12-12 15:01:24 Local
Advertisement - Login to hide

Runways

ID Width Length Bearing (true) Bearing (mag) Surface Threshold Offset Overrun Length
18 150 ft / 46 m 4,992 ft / 1,522 m 149.05° 170.01° Asphalt 0 ft / 0 m 250 ft / 76 m
36 150 ft / 46 m 4,992 ft / 1,522 m 329.06° 350.02° Asphalt 0 ft / 0 m 250 ft / 76 m

Map

Weather


0- 5 10 15 20 25 30 35+ Temperature / ° C

Clouds and Precipitation
Forecast for 2017-12-12 12:00 UTC. Updated an hour ago

Ground ~20,000 ft ~40,000 ft Winds

METAR

CYKL 121200Z AUTO 29008G17KT 9SM OVC031 M24/M28 A2982 RMK SLP162

TAF

TAF CYKL 120739Z 1208/1220 26015G25KT P6SM SCT020 TEMPO 1208/1214 5SM -SN BKN020 BECMG 1210/1212 26012G22KT FM121400 26010KT P6SM FEW020 RMK FCST BASED ON AUTO OBS. NXT FCST BY 121400Z

Frequencies

Recorded 124.60 MHz AWOS
Tower 122.20 MHz MF
Warning: Do not use this data for real-world aviation or navigation. No guarantee of current accuracy is given.